Costa Fortuna — IBNY — position and weather

sailwx.info

Track history (hours):
 
Tides and Currents Weather Stations Pressure Air Temp Water Temp Dewpoint Dewpoint Depression Visibility Wind Speed Wind Dir Waves Ship Positions

Costa Fortuna

Last reported at 2018-Feb-18 12:07 UTC. Time now 2018-Feb-22 10:42 UTC.
Position N 38°16' E 121°44'.

Length 272 m; draft 8.3 m.

Type: Ship. MMSI: 247094800.

Date/timePositionNaut miles runAvg speedWind from/ knotsBaromVisibWave heightAir tempDewpointWater temp
2018-Feb-18 12:07N 38°16' E 121°44'216.6
2018-Feb-18 11:59N 38°15' E 121°47'816.8
2018-Feb-18 11:30N 38°11' E 121°55'1717.0
2018-Feb-18 10:30N 38°01' E 122°13'45410.6
2018-Feb-16 15:48N 33°40' E 129°52'310.6
2018-Feb-16 15:28N 33°42' E 129°55'510.7
2018-Feb-16 15:00N 33°44' E 130°01'510.8
2018-Feb-16 14:30N 33°45' E 130°07'510.6
2018-Feb-16 14:00N 33°46' E 130°14'611.3
2018-Feb-16 13:30N 33°40' E 130°16'510.9
2018-Feb-16 13:00N 33°38' E 130°22'2 3.5
2018-Feb-16 12:29N 33°37' E 130°24'0 0.0
2018-Feb-16 11:59N 33°37' E 130°24'0 0.0
2018-Feb-16 11:29N 33°37' E 130°24'0 0.0
2018-Feb-16 10:59N 33°37' E 130°24'0 0.0
2018-Feb-16 10:29N 33°37' E 130°24'0 0.0
2018-Feb-16 09:59N 33°37' E 130°24'0 0.0
2018-Feb-16 09:29N 33°37' E 130°24'0 0.0
2018-Feb-16 08:59N 33°37' E 130°24'0 0.0
2018-Feb-16 08:29N 33°37' E 130°24'0 0.0
2018-Feb-16 07:59N 33°37' E 130°24'0 0.0
2018-Feb-16 07:29N 33°37' E 130°24'0 0.0
2018-Feb-16 06:59N 33°37' E 130°24'0 0.0
2018-Feb-16 06:29N 33°37' E 130°24'0 0.0
2018-Feb-16 05:59N 33°37' E 130°24'0 0.0
2018-Feb-16 05:29N 33°37' E 130°24'0 0.2
2018-Feb-16 05:00N 33°37' E 130°24'3 5.8
2018-Feb-16 04:30N 33°38' E 130°21'713.0
2018-Feb-16 04:00N 33°43' E 130°15'817.2
2018-Feb-16 03:31N 33°48' E 130°07'917.9
2018-Feb-16 03:00N 33°51' E 129°57'917.7
2018-Feb-16 02:30N 33°54' E 129°47'917.3
2018-Feb-16 02:00N 33°55' E 129°36'41315.3
2018-Feb-14 23:00N 37°48' E 122°36'16017.8 350 / 211027.010.8 -0.0
2018-Feb-14 14:00N 38°42' E 119°24'87 3.6 090 / 71025.0 5.4 -0.0
2018-Feb-13 13:43N 38°36' E 121°14'520.7
2018-Feb-13 13:30N 38°33' E 121°20'1120.5
2018-Feb-13 12:57N 38°27' E 121°32'715.5
2018-Feb-13 12:30N 38°21' E 121°36'3317.6
2018-Feb-13 10:39N 38°02' E 122°10'317.4
2018-Feb-13 10:29N 38°01' E 122°13'1020.6
2018-Feb-13 10:00N 38°00' E 122°00'20218.3 170 / 371013.0
2018-Feb-12 23:00N 35°18' E 124°30'17817.8 250 / 201026.010.8
2018-Feb-12 13:00N 33°48' E 127°36'51521288.1 300 / 381024.0 5.4 2.0
2018-Feb-12 09:00N 33°54' W 129°00'50423359.5 290 / 341021.0
2018-Feb-12 07:29N 33°55' E 129°45'1019.6
2018-Feb-12 07:00N 33°51' E 129°56'1019.5
2018-Feb-12 06:30N 33°47' E 130°06'918.6
2018-Feb-12 06:00N 33°42' E 130°16'713.6
2018-Feb-12 05:30N 33°38' E 130°22'2 3.4
2018-Feb-12 04:56N 33°37' E 130°24'0 0.0
2018-Feb-12 04:26N 33°37' E 130°24'0 0.0
2018-Feb-12 03:59N 33°37' E 130°24'0 0.0
2018-Feb-12 03:29N 33°37' E 130°24'0 0.0
2018-Feb-12 02:59N 33°37' E 130°24'0 0.0
2018-Feb-12 02:26N 33°37' E 130°24'0 0.0
2018-Feb-12 01:59N 33°37' E 130°24'0 0.0
2018-Feb-12 01:29N 33°37' E 130°24'0 0.0
2018-Feb-12 00:59N 33°37' E 130°24'0 0.0
2018-Feb-12 00:26N 33°37' E 130°24'0 0.0
2018-Feb-11 23:59N 33°37' E 130°24'0 0.0
2018-Feb-11 23:26N 33°37' E 130°24'0 0.0
2018-Feb-11 22:59N 33°37' E 130°24'0 0.0
2018-Feb-11 22:30N 33°37' E 130°24'0 0.0
2018-Feb-11 22:00N 33°37' E 130°24'0 0.1
2018-Feb-11 21:30N 33°37' E 130°24'2 3.5
2018-Feb-11 21:00N 33°38' E 130°22'611.8
2018-Feb-11 20:30N 33°41' E 130°16'612.0
2018-Feb-11 20:00N 33°45' E 130°11'713.1
2018-Feb-11 19:30N 33°44' E 130°03'612.2
2018-Feb-11 19:00N 33°42' E 129°56'713.2
2018-Feb-11 18:30N 33°39' E 129°49'612.2
2018-Feb-11 18:00N 33°36' E 129°42'2216.6 280 / 401023.0 5.4 3.0-4.1 6.0
2018-Feb-11 16:41N 33°26' E 129°19'36 1.9
2018-Feb-10 22:00N 33°24' E 128°36'5050.4 310 / 331025.0 5.4 1.0
2018-Feb-10 21:00N 33°30' E 127°36'63 5.7 320 / 331025.0 5.4 1.0
2018-Feb-10 10:00N 33°48' E 126°24'118118.4 350 / 271026.0 5.4 1.0
2018-Feb-10 09:00N 35°06' E 124°36'4414.8 340 / 251026.0 5.4 -0.0
2018-Feb-10 06:00N 35°48' E 124°18'14518.1 310 / 201024.0 5.4 1.0-6.9 6.0
2018-Feb-09 22:00N 37°48' E 122°36'3130.8 340 / 371026.0 5.4
2018-Feb-09 21:00N 38°00' E 122°00'4514.9 350 / 401026.0 5.4
2018-Feb-09 18:00N 38°24' E 121°12'6220.7 360 / 331026.0 5.4 5.0-2.6 4.0
2018-Feb-09 15:00N 38°36' E 119°54'7123.8 330 / 291025.0
2018-Feb-09 12:00N 38°48' E 118°24'19 1.1 320 / 201025.0 5.4 1.0
2018-Feb-08 19:00N 38°48' E 118°48'2424.2 030 / 271018.0 2.2 -0.0 -0.0
2018-Feb-08 18:00N 38°42' E 119°18'   170 / 251018.0 5.4 -0.0-5.0 3.0
Track history (hours):
 
Tides and Currents Weather Stations Pressure Air Temp Water Temp Dewpoint Dewpoint Depression Visibility Wind Speed Wind Dir Waves Ship Positions

Costa Fortuna

Last reported at 2018-Feb-18 12:07 UTC. Time now 2018-Feb-22 10:42 UTC.
Position N 38°16' E 121°44'.

Length 272 m; draft 8.3 m.

Type: Ship. MMSI: 247094800.

Date/timePositionNaut miles runAvg speedWind from/ knotsBaromVisibWave heightAir tempDewpointWater temp
2018-Feb-18 12:07N 38°16' E 121°44'216.6
2018-Feb-18 11:59N 38°15' E 121°47'816.8
2018-Feb-18 11:30N 38°11' E 121°55'1717.0
2018-Feb-18 10:30N 38°01' E 122°13'45410.6
2018-Feb-16 15:48N 33°40' E 129°52'310.6
2018-Feb-16 15:28N 33°42' E 129°55'510.7
2018-Feb-16 15:00N 33°44' E 130°01'510.8
2018-Feb-16 14:30N 33°45' E 130°07'510.6
2018-Feb-16 14:00N 33°46' E 130°14'611.3
2018-Feb-16 13:30N 33°40' E 130°16'510.9
2018-Feb-16 13:00N 33°38' E 130°22'2 3.5
2018-Feb-16 12:29N 33°37' E 130°24'0 0.0
2018-Feb-16 11:59N 33°37' E 130°24'0 0.0
2018-Feb-16 11:29N 33°37' E 130°24'0 0.0
2018-Feb-16 10:59N 33°37' E 130°24'0 0.0
2018-Feb-16 10:29N 33°37' E 130°24'0 0.0
2018-Feb-16 09:59N 33°37' E 130°24'0 0.0
2018-Feb-16 09:29N 33°37' E 130°24'0 0.0
2018-Feb-16 08:59N 33°37' E 130°24'0 0.0
2018-Feb-16 08:29N 33°37' E 130°24'0 0.0
2018-Feb-16 07:59N 33°37' E 130°24'0 0.0
2018-Feb-16 07:29N 33°37' E 130°24'0 0.0
2018-Feb-16 06:59N 33°37' E 130°24'0 0.0
2018-Feb-16 06:29N 33°37' E 130°24'0 0.0
2018-Feb-16 05:59N 33°37' E 130°24'0 0.0
2018-Feb-16 05:29N 33°37' E 130°24'0 0.2
2018-Feb-16 05:00N 33°37' E 130°24'3 5.8
2018-Feb-16 04:30N 33°38' E 130°21'713.0
2018-Feb-16 04:00N 33°43' E 130°15'817.2
2018-Feb-16 03:31N 33°48' E 130°07'917.9
2018-Feb-16 03:00N 33°51' E 129°57'917.7
2018-Feb-16 02:30N 33°54' E 129°47'917.3
2018-Feb-16 02:00N 33°55' E 129°36'41315.3
2018-Feb-14 23:00N 37°48' E 122°36'16017.8 350 / 211027.010.8 -0.0
2018-Feb-14 14:00N 38°42' E 119°24'87 3.6 090 / 71025.0 5.4 -0.0
2018-Feb-13 13:43N 38°36' E 121°14'520.7
2018-Feb-13 13:30N 38°33' E 121°20'1120.5
2018-Feb-13 12:57N 38°27' E 121°32'715.5
2018-Feb-13 12:30N 38°21' E 121°36'3317.6
2018-Feb-13 10:39N 38°02' E 122°10'317.4
2018-Feb-13 10:29N 38°01' E 122°13'1020.6
2018-Feb-13 10:00N 38°00' E 122°00'20218.3 170 / 371013.0
2018-Feb-12 23:00N 35°18' E 124°30'17817.8 250 / 201026.010.8
2018-Feb-12 13:00N 33°48' E 127°36'51521288.1 300 / 381024.0 5.4 2.0
2018-Feb-12 09:00N 33°54' W 129°00'50423359.5 290 / 341021.0
2018-Feb-12 07:29N 33°55' E 129°45'1019.6
2018-Feb-12 07:00N 33°51' E 129°56'1019.5
2018-Feb-12 06:30N 33°47' E 130°06'918.6
2018-Feb-12 06:00N 33°42' E 130°16'713.6
2018-Feb-12 05:30N 33°38' E 130°22'2 3.4
2018-Feb-12 04:56N 33°37' E 130°24'0 0.0
2018-Feb-12 04:26N 33°37' E 130°24'0 0.0
2018-Feb-12 03:59N 33°37' E 130°24'0 0.0
2018-Feb-12 03:29N 33°37' E 130°24'0 0.0
2018-Feb-12 02:59N 33°37' E 130°24'0 0.0
2018-Feb-12 02:26N 33°37' E 130°24'0 0.0
2018-Feb-12 01:59N 33°37' E 130°24'0 0.0
2018-Feb-12 01:29N 33°37' E 130°24'0 0.0
2018-Feb-12 00:59N 33°37' E 130°24'0 0.0
2018-Feb-12 00:26N 33°37' E 130°24'0 0.0
2018-Feb-11 23:59N 33°37' E 130°24'0 0.0
2018-Feb-11 23:26N 33°37' E 130°24'0 0.0
2018-Feb-11 22:59N 33°37' E 130°24'0 0.0
2018-Feb-11 22:30N 33°37' E 130°24'0 0.0
2018-Feb-11 22:00N 33°37' E 130°24'0 0.1
2018-Feb-11 21:30N 33°37' E 130°24'2 3.5
2018-Feb-11 21:00N 33°38' E 130°22'611.8
2018-Feb-11 20:30N 33°41' E 130°16'612.0
2018-Feb-11 20:00N 33°45' E 130°11'713.1
2018-Feb-11 19:30N 33°44' E 130°03'612.2
2018-Feb-11 19:00N 33°42' E 129°56'713.2
2018-Feb-11 18:30N 33°39' E 129°49'612.2
2018-Feb-11 18:00N 33°36' E 129°42'2216.6 280 / 401023.0 5.4 3.0-4.1 6.0
2018-Feb-11 16:41N 33°26' E 129°19'36 1.9
2018-Feb-10 22:00N 33°24' E 128°36'5050.4 310 / 331025.0 5.4 1.0
2018-Feb-10 21:00N 33°30' E 127°36'63 5.7 320 / 331025.0 5.4 1.0
2018-Feb-10 10:00N 33°48' E 126°24'118118.4 350 / 271026.0 5.4 1.0
2018-Feb-10 09:00N 35°06' E 124°36'4414.8 340 / 251026.0 5.4 -0.0
2018-Feb-10 06:00N 35°48' E 124°18'14518.1 310 / 201024.0 5.4 1.0-6.9 6.0
2018-Feb-09 22:00N 37°48' E 122°36'3130.8 340 / 371026.0 5.4
2018-Feb-09 21:00N 38°00' E 122°00'4514.9 350 / 401026.0 5.4
2018-Feb-09 18:00N 38°24' E 121°12'6220.7 360 / 331026.0 5.4 5.0-2.6 4.0
2018-Feb-09 15:00N 38°36' E 119°54'7123.8 330 / 291025.0
2018-Feb-09 12:00N 38°48' E 118°24'19 1.1 320 / 201025.0 5.4 1.0
2018-Feb-08 19:00N 38°48' E 118°48'2424.2 030 / 271018.0 2.2 -0.0 -0.0
2018-Feb-08 18:00N 38°42' E 119°18'   170 / 251018.0 5.4 -0.0-5.0 3.0

Dump ship's entire track history